createdAt,value
2023-05-23T00:03:33.822Z,13.36
2023-05-23T00:08:25.829Z,13.37
2023-05-23T00:13:17.722Z,13.40
2023-05-23T00:18:12.395Z,13.41
2023-05-23T00:23:04.446Z,13.45
2023-05-23T00:27:56.135Z,13.41
2023-05-23T00:32:47.852Z,13.40
2023-05-23T00:37:40.616Z,13.38
2023-05-23T00:42:32.736Z,13.42
2023-05-23T00:47:24.606Z,13.42
2023-05-23T00:52:17.564Z,13.33
2023-05-23T00:57:09.235Z,13.32
2023-05-23T01:02:00.981Z,13.36
2023-05-23T01:06:56.284Z,13.38
2023-05-23T01:12:04.646Z,13.38
2023-05-23T01:17:01.668Z,13.38
2023-05-23T01:21:55.410Z,13.37
2023-05-23T01:26:48.335Z,13.37
2023-05-23T01:31:46.084Z,13.39
2023-05-23T01:36:43.050Z,13.42
2023-05-23T01:41:34.998Z,13.39
2023-05-23T01:46:28.753Z,13.38
2023-05-23T01:51:22.701Z,13.37
2023-05-23T01:56:14.470Z,13.33
2023-05-23T02:01:06.721Z,13.34
2023-05-23T02:05:58.363Z,13.34
2023-05-23T02:10:50.533Z,13.36
2023-05-23T02:15:42.375Z,13.34
2023-05-23T02:20:34.308Z,13.30
2023-05-23T02:25:25.879Z,13.25
2023-05-23T02:30:17.604Z,13.22
2023-05-23T02:35:10.613Z,13.15
2023-05-23T02:40:02.288Z,13.09
2023-05-23T02:44:54.216Z,13.00
2023-05-23T02:49:45.922Z,12.93
2023-05-23T02:54:37.597Z,12.85
2023-05-23T02:59:29.301Z,12.79
2023-05-23T03:04:21.500Z,12.68
2023-05-23T03:09:16.908Z,12.62
2023-05-23T03:14:08.511Z,12.54
2023-05-23T03:19:00.826Z,12.47
2023-05-23T03:23:52.486Z,12.43
2023-05-23T03:28:44.057Z,12.38
2023-05-23T03:33:37.084Z,12.35
2023-05-23T03:38:30.732Z,12.31
2023-05-23T03:43:22.425Z,12.31
2023-05-23T03:48:14.103Z,12.40
2023-05-23T03:53:06.116Z,12.44
2023-05-23T03:57:57.754Z,12.45
2023-05-23T04:02:52.196Z,12.44
2023-05-23T04:07:45.585Z,12.43
2023-05-23T04:12:38.574Z,12.42
2023-05-23T04:17:31.799Z,12.40
2023-05-23T04:22:23.706Z,12.40
2023-05-23T04:27:15.399Z,12.38
2023-05-23T04:32:08.167Z,12.40
2023-05-23T04:37:03.093Z,12.44
2023-05-23T04:41:54.694Z,12.46
2023-05-23T04:46:46.398Z,12.48
2023-05-23T04:51:38.440Z,12.52
2023-05-23T04:56:30.177Z,12.53
2023-05-23T05:01:24.513Z,12.54
2023-05-23T05:06:18.457Z,12.57
2023-05-23T05:11:10.567Z,12.57
2023-05-23T05:16:03.135Z,12.57
2023-05-23T05:20:55.974Z,12.59
2023-05-23T05:25:47.957Z,12.59
2023-05-23T05:30:40.043Z,12.59
2023-05-23T05:35:32.521Z,12.62
2023-05-23T05:40:24.414Z,12.67
2023-05-23T05:45:18.102Z,12.68
2023-05-23T05:50:11.855Z,12.74
2023-05-23T05:55:03.646Z,12.80
2023-05-23T05:59:55.429Z,12.83
2023-05-23T06:04:47.182Z,12.85
2023-05-23T06:09:39.284Z,12.89
2023-05-23T06:14:31.008Z,12.93
2023-05-23T06:19:23.342Z,12.96
2023-05-23T06:24:15.125Z,13.00
2023-05-23T06:29:06.734Z,13.05
2023-05-23T06:33:58.494Z,13.11
2023-05-23T06:38:50.138Z,13.24
2023-05-23T06:43:41.956Z,13.39
2023-05-23T06:48:33.698Z,13.52
2023-05-23T06:53:25.297Z,13.70
2023-05-23T06:58:16.895Z,13.91
2023-05-23T07:03:08.677Z,14.25
2023-05-23T07:08:01.579Z,14.55
2023-05-23T07:12:53.221Z,14.80
2023-05-23T07:17:44.927Z,15.08
2023-05-23T07:22:36.771Z,15.21
2023-05-23T07:27:29.172Z,15.23
2023-05-23T07:32:20.916Z,15.30
2023-05-23T07:37:12.517Z,15.30
2023-05-23T07:42:04.380Z,15.38
2023-05-23T07:46:56.100Z,15.43
2023-05-23T07:51:47.912Z,15.45
2023-05-23T07:56:40.047Z,15.46
2023-05-23T08:01:31.880Z,15.40
2023-05-23T08:06:23.518Z,15.40
2023-05-23T08:11:15.682Z,15.34
2023-05-23T08:16:07.452Z,15.27
2023-05-23T08:20:59.131Z,15.18
2023-05-23T08:25:51.810Z,15.11
2023-05-23T08:30:43.642Z,15.04
2023-05-23T08:35:36.842Z,14.99
2023-05-23T08:40:32.173Z,14.99
2023-05-23T08:45:23.936Z,15.04
2023-05-23T08:50:18.697Z,15.11
2023-05-23T08:55:13.201Z,15.17
2023-05-23T09:00:11.120Z,15.19
2023-05-23T09:05:03.153Z,15.23
2023-05-23T09:09:55.187Z,15.29
2023-05-23T09:14:47.218Z,15.38
2023-05-23T09:19:42.284Z,15.46
2023-05-23T09:24:36.028Z,15.54
2023-05-23T09:29:28.052Z,15.69
2023-05-23T09:34:19.673Z,15.84
2023-05-23T09:39:12.558Z,16.09
2023-05-23T09:44:10.088Z,16.40
2023-05-23T09:49:02.175Z,16.45
2023-05-23T09:53:54.077Z,16.63
2023-05-23T09:58:48.669Z,16.75
2023-05-23T10:04:00.027Z,16.88
2023-05-23T10:08:59.402Z,16.95
2023-05-23T10:13:51.242Z,16.99
2023-05-23T10:18:44.470Z,17.05
2023-05-23T10:23:37.751Z,17.03
2023-05-23T10:28:29.411Z,16.89
2023-05-23T10:33:22.678Z,16.88
2023-05-23T10:38:31.741Z,16.98
2023-05-23T10:43:31.218Z,17.11
2023-05-23T10:48:32.700Z,17.24
2023-05-23T10:53:24.364Z,17.34
2023-05-23T10:58:19.862Z,17.30
2023-05-23T11:03:11.785Z,17.07
2023-05-23T11:08:18.004Z,16.85
2023-05-23T11:13:11.141Z,16.82
2023-05-23T11:18:07.007Z,16.83
2023-05-23T11:23:04.109Z,16.78
2023-05-23T11:27:55.849Z,16.80
2023-05-23T11:32:53.196Z,16.74
2023-05-23T11:37:44.986Z,16.74
2023-05-23T11:42:42.272Z,16.71
2023-05-23T11:47:40.690Z,16.73
2023-05-23T11:52:33.335Z,16.72
2023-05-23T11:57:24.938Z,16.75
2023-05-23T12:02:16.542Z,16.79
2023-05-23T12:07:08.319Z,16.84
2023-05-23T12:12:00.058Z,17.06
2023-05-23T12:16:52.826Z,17.43
2023-05-23T12:21:49.026Z,17.80
2023-05-23T12:26:55.327Z,18.23
2023-05-23T12:31:51.474Z,18.66
2023-05-23T12:36:49.061Z,19.04
2023-05-23T12:41:42.666Z,19.28
2023-05-23T12:46:34.768Z,19.26
2023-05-23T12:51:26.631Z,19.18
2023-05-23T12:56:18.722Z,19.26
2023-05-23T13:01:11.220Z,19.52
2023-05-23T13:06:03.306Z,19.68
2023-05-23T13:10:55.109Z,19.90
2023-05-23T13:15:48.136Z,20.06
2023-05-23T13:20:42.366Z,20.01
2023-05-23T13:25:33.956Z,19.89
2023-05-23T13:30:25.580Z,20.03
2023-05-23T13:35:17.283Z,20.15
2023-05-23T13:40:13.452Z,20.07
2023-05-23T13:45:06.273Z,19.99
2023-05-23T13:49:58.088Z,19.92
2023-05-23T13:54:49.734Z,19.98
2023-05-23T13:59:41.344Z,20.09
2023-05-23T14:04:33.036Z,20.04
2023-05-23T14:09:24.774Z,20.04
2023-05-23T14:14:17.838Z,19.86
2023-05-23T14:19:10.126Z,19.85
2023-05-23T14:24:02.983Z,19.96
2023-05-23T14:28:55.247Z,20.03
2023-05-23T14:33:47.741Z,19.94
2023-05-23T14:38:40.812Z,19.92
2023-05-23T14:43:32.528Z,19.96
2023-05-23T14:48:24.292Z,19.98
2023-05-23T14:53:16.163Z,19.94
2023-05-23T14:58:08.106Z,19.94
2023-05-23T15:02:59.932Z,19.97
2023-05-23T15:07:51.634Z,19.84
2023-05-23T15:12:43.946Z,19.74
2023-05-23T15:17:35.771Z,19.68
2023-05-23T15:27:24.014Z,19.73
2023-05-23T15:32:16.034Z,19.68
2023-05-23T15:37:07.829Z,19.51
2023-05-23T15:41:59.687Z,19.52
2023-05-23T15:46:51.974Z,19.50
2023-05-23T15:51:43.666Z,19.27
2023-05-23T15:56:35.461Z,19.22
2023-05-23T16:01:27.153Z,19.19
2023-05-23T16:06:18.923Z,19.09
2023-05-23T16:11:10.646Z,19.06
2023-05-23T16:16:04.118Z,19.01
2023-05-23T16:20:57.206Z,18.88
2023-05-23T16:25:49.038Z,18.84
2023-05-23T16:30:40.785Z,18.78
2023-05-23T16:35:32.497Z,18.73
2023-05-23T16:40:24.308Z,18.71
2023-05-23T16:45:16.024Z,18.59
2023-05-23T16:50:09.217Z,18.45
2023-05-23T16:55:00.855Z,18.34
2023-05-23T16:59:52.695Z,18.29
2023-05-23T17:04:44.311Z,18.28
2023-05-23T17:09:36.802Z,18.19
2023-05-23T17:14:28.821Z,18.11
2023-05-23T17:19:20.963Z,18.04
2023-05-23T17:24:13.162Z,17.89
2023-05-23T17:29:05.276Z,17.78
2023-05-23T17:33:56.935Z,17.73
2023-05-23T17:38:48.794Z,17.64
2023-05-23T17:43:43.000Z,17.57
2023-05-23T17:48:46.433Z,17.44
2023-05-23T17:53:41.450Z,17.31
2023-05-23T17:58:33.131Z,17.16
2023-05-23T18:03:24.881Z,17.08
2023-05-23T18:08:16.512Z,17.05
2023-05-23T18:13:08.112Z,17.02
2023-05-23T18:17:59.821Z,16.95
2023-05-23T18:22:53.875Z,16.86
2023-05-23T18:27:45.858Z,16.77
2023-05-23T18:32:37.530Z,16.65
2023-05-23T18:37:29.131Z,16.56
2023-05-23T18:42:21.147Z,16.51
2023-05-23T18:47:13.052Z,16.42
2023-05-23T18:52:06.198Z,16.38
2023-05-23T18:56:57.851Z,16.26
2023-05-23T19:01:49.600Z,16.14
2023-05-23T19:06:42.453Z,16.04
2023-05-23T19:11:34.115Z,15.85
2023-05-23T19:16:25.844Z,15.63
2023-05-23T19:21:17.464Z,15.45
2023-05-23T19:26:10.312Z,15.31
2023-05-23T19:31:02.030Z,15.13
2023-05-23T19:35:53.771Z,15.00
2023-05-23T19:40:47.068Z,14.91
2023-05-23T19:45:38.844Z,14.81
2023-05-23T19:50:30.481Z,14.71
2023-05-23T19:55:22.373Z,14.62
2023-05-23T20:00:15.406Z,14.55
2023-05-23T20:05:08.369Z,14.42
2023-05-23T20:10:00.023Z,14.33
2023-05-23T20:14:51.879Z,14.24
2023-05-23T20:19:43.523Z,14.22
2023-05-23T20:24:35.267Z,14.19
2023-05-23T20:29:27.040Z,14.02
2023-05-23T20:34:18.745Z,13.95
2023-05-23T20:39:10.456Z,13.89
2023-05-23T20:44:02.273Z,13.80
2023-05-23T20:48:53.920Z,13.74
2023-05-23T20:53:45.711Z,13.69
2023-05-23T20:58:37.963Z,13.61
2023-05-23T21:03:29.605Z,13.57
2023-05-23T21:08:22.625Z,13.56
2023-05-23T21:13:14.199Z,13.45
2023-05-23T21:18:06.002Z,13.39
2023-05-23T21:22:57.638Z,13.31
2023-05-23T21:27:49.230Z,13.21
2023-05-23T21:32:41.117Z,13.12
2023-05-23T21:37:32.749Z,13.02
2023-05-23T21:42:25.521Z,12.90
2023-05-23T21:47:17.246Z,12.83
2023-05-23T21:52:08.899Z,12.75
2023-05-23T21:57:00.565Z,12.68
2023-05-23T22:01:52.294Z,12.61
2023-05-23T22:06:44.075Z,12.54
2023-05-23T22:11:35.714Z,12.55
2023-05-23T22:16:28.293Z,12.56
2023-05-23T22:21:19.960Z,12.56
2023-05-23T22:26:12.685Z,12.50
2023-05-23T22:31:04.511Z,12.44
2023-05-23T22:35:56.222Z,12.40
2023-05-23T22:40:47.950Z,12.32
2023-05-23T22:45:42.683Z,12.27
2023-05-23T22:50:41.004Z,12.20
2023-05-23T22:55:32.787Z,12.13
2023-05-23T23:00:28.007Z,12.10
2023-05-23T23:05:20.758Z,12.07
2023-05-23T23:10:12.434Z,12.03
2023-05-23T23:15:04.805Z,11.97
2023-05-23T23:19:57.772Z,11.92
2023-05-23T23:24:49.537Z,11.84
2023-05-23T23:29:41.182Z,11.81
2023-05-23T23:34:32.821Z,11.78
2023-05-23T23:39:24.508Z,11.72
2023-05-23T23:44:16.455Z,11.68
2023-05-23T23:49:08.048Z,11.62
2023-05-23T23:53:59.939Z,11.57
2023-05-23T23:58:52.158Z,11.55
